sensor_id;sensor_type;location;lat;lon;timestamp;pressure;altitude;pressure_sealevel;temperature
76713;BMP280;65640;43.154;25.658;2024-01-15T00:00:00;100207.72;;;-3.85
76713;BMP280;65640;43.154;25.658;2024-01-15T00:02:26;100212.28;;;-3.80
76713;BMP280;65640;43.154;25.658;2024-01-15T00:04:51;100213.97;;;-3.87
76713;BMP280;65640;43.154;25.658;2024-01-15T00:07:16;100211.63;;;-3.97
76713;BMP280;65640;43.154;25.658;2024-01-15T00:09:42;100209.41;;;-4.00
76713;BMP280;65640;43.154;25.658;2024-01-15T00:12:07;100208.06;;;-3.88
76713;BMP280;65640;43.154;25.658;2024-01-15T00:14:32;100207.50;;;-3.98
76713;BMP280;65640;43.154;25.658;2024-01-15T00:16:57;100202.38;;;-3.98
76713;BMP280;65640;43.154;25.658;2024-01-15T00:19:23;100207.38;;;-4.05
76713;BMP280;65640;43.154;25.658;2024-01-15T00:21:49;100202.19;;;-4.11
76713;BMP280;65640;43.154;25.658;2024-01-15T00:24:14;100205.09;;;-4.22
76713;BMP280;65640;43.154;25.658;2024-01-15T00:26:40;100205.38;;;-4.17
76713;BMP280;65640;43.154;25.658;2024-01-15T00:29:08;100204.03;;;-4.05
76713;BMP280;65640;43.154;25.658;2024-01-15T00:31:33;100206.19;;;-4.17
76713;BMP280;65640;43.154;25.658;2024-01-15T00:33:59;100204.81;;;-4.27
76713;BMP280;65640;43.154;25.658;2024-01-15T00:36:24;100206.06;;;-4.23
76713;BMP280;65640;43.154;25.658;2024-01-15T00:38:50;100196.28;;;-4.12
76713;BMP280;65640;43.154;25.658;2024-01-15T00:41:16;100195.56;;;-4.06
76713;BMP280;65640;43.154;25.658;2024-01-15T00:43:41;100199.63;;;-4.11
76713;BMP280;65640;43.154;25.658;2024-01-15T00:46:06;100193.91;;;-4.21
76713;BMP280;65640;43.154;25.658;2024-01-15T00:48:32;100188.66;;;-4.20
76713;BMP280;65640;43.154;25.658;2024-01-15T00:50:57;100189.78;;;-4.22
76713;BMP280;65640;43.154;25.658;2024-01-15T00:53:23;100182.88;;;-4.37
76713;BMP280;65640;43.154;25.658;2024-01-15T00:55:48;100183.09;;;-4.23
76713;BMP280;65640;43.154;25.658;2024-01-15T00:58:13;100183.44;;;-4.26
76713;BMP280;65640;43.154;25.658;2024-01-15T01:00:39;100176.63;;;-4.34
76713;BMP280;65640;43.154;25.658;2024-01-15T01:03:04;100176.31;;;-4.39
76713;BMP280;65640;43.154;25.658;2024-01-15T01:05:29;100169.94;;;-4.35
76713;BMP280;65640;43.154;25.658;2024-01-15T01:07:55;100163.59;;;-4.47
76713;BMP280;65640;43.154;25.658;2024-01-15T01:10:20;100162.47;;;-4.45
76713;BMP280;65640;43.154;25.658;2024-01-15T01:12:45;100163.00;;;-4.26
76713;BMP280;65640;43.154;25.658;2024-01-15T01:15:10;100158.50;;;-4.24
76713;BMP280;65640;43.154;25.658;2024-01-15T01:17:36;100157.38;;;-4.45
76713;BMP280;65640;43.154;25.658;2024-01-15T01:20:01;100159.81;;;-4.28
76713;BMP280;65640;43.154;25.658;2024-01-15T01:22:29;100153.50;;;-4.41
76713;BMP280;65640;43.154;25.658;2024-01-15T01:24:54;100160.34;;;-4.56
76713;BMP280;65640;43.154;25.658;2024-01-15T01:27:20;100160.34;;;-4.56
76713;BMP280;65640;43.154;25.658;2024-01-15T01:29:45;100151.56;;;-4.53
76713;BMP280;65640;43.154;25.658;2024-01-15T01:32:10;100151.06;;;-4.57
76713;BMP280;65640;43.154;25.658;2024-01-15T01:34:40;100152.69;;;-4.56
76713;BMP280;65640;43.154;25.658;2024-01-15T01:37:06;100145.34;;;-4.59
76713;BMP280;65640;43.154;25.658;2024-01-15T01:39:32;100142.66;;;-4.66
76713;BMP280;65640;43.154;25.658;2024-01-15T01:41:57;100140.56;;;-4.62
76713;BMP280;65640;43.154;25.658;2024-01-15T01:44:23;100142.66;;;-4.66
76713;BMP280;65640;43.154;25.658;2024-01-15T01:46:48;100136.94;;;-4.68
76713;BMP280;65640;43.154;25.658;2024-01-15T01:49:14;100143.16;;;-4.70
76713;BMP280;65640;43.154;25.658;2024-01-15T01:51:39;100138.97;;;-4.63
76713;BMP280;65640;43.154;25.658;2024-01-15T01:54:04;100125.94;;;-4.68
76713;BMP280;65640;43.154;25.658;2024-01-15T01:56:30;100128.47;;;-4.68
76713;BMP280;65640;43.154;25.658;2024-01-15T01:58:55;100119.91;;;-4.75
76713;BMP280;65640;43.154;25.658;2024-01-15T02:01:21;100126.09;;;-4.70
76713;BMP280;65640;43.154;25.658;2024-01-15T02:03:47;100122.84;;;-4.86
76713;BMP280;65640;43.154;25.658;2024-01-15T02:06:12;100125.97;;;-4.76
76713;BMP280;65640;43.154;25.658;2024-01-15T02:08:38;100123.88;;;-4.73
76713;BMP280;65640;43.154;25.658;2024-01-15T02:11:03;100119.63;;;-4.80
76713;BMP280;65640;43.154;25.658;2024-01-15T02:13:28;100117.91;;;-4.88
76713;BMP280;65640;43.154;25.658;2024-01-15T02:15:54;100120.28;;;-4.86
76713;BMP280;65640;43.154;25.658;2024-01-15T02:18:19;100114.84;;;-4.83
76713;BMP280;65640;43.154;25.658;2024-01-15T02:20:45;100121.53;;;-4.82
76713;BMP280;65640;43.154;25.658;2024-01-15T02:23:11;100113.59;;;-4.87
76713;BMP280;65640;43.154;25.658;2024-01-15T02:25:40;100111.06;;;-4.96
76713;BMP280;65640;43.154;25.658;2024-01-15T02:28:06;100107.38;;;-4.85
76713;BMP280;65640;43.154;25.658;2024-01-15T02:30:31;100103.69;;;-4.82
76713;BMP280;65640;43.154;25.658;2024-01-15T02:32:57;100105.78;;;-4.94
76713;BMP280;65640;43.154;25.658;2024-01-15T02:35:22;100106.94;;;-4.97
76713;BMP280;65640;43.154;25.658;2024-01-15T02:37:47;100105.97;;;-4.96
76713;BMP280;65640;43.154;25.658;2024-01-15T02:40:13;100099.63;;;-5.00
76713;BMP280;65640;43.154;25.658;2024-01-15T02:42:38;100096.72;;;-4.97
76713;BMP280;65640;43.154;25.658;2024-01-15T02:45:03;100096.72;;;-4.97
76713;BMP280;65640;43.154;25.658;2024-01-15T02:47:29;100094.00;;;-4.95
76713;BMP280;65640;43.154;25.658;2024-01-15T02:49:54;100101.34;;;-4.92
76713;BMP280;65640;43.154;25.658;2024-01-15T02:52:19;100094.97;;;-4.96
76713;BMP280;65640;43.154;25.658;2024-01-15T02:54:45;100093.75;;;-5.00
76713;BMP280;65640;43.154;25.658;2024-01-15T02:57:10;100087.88;;;-5.09
76713;BMP280;65640;43.154;25.658;2024-01-15T02:59:35;100084.06;;;-5.13
76713;BMP280;65640;43.154;25.658;2024-01-15T03:02:01;100080.88;;;-5.15
76713;BMP280;65640;43.154;25.658;2024-01-15T03:04:26;100080.25;;;-5.09
76713;BMP280;65640;43.154;25.658;2024-01-15T03:06:51;100079.28;;;-5.08
76713;BMP280;65640;43.154;25.658;2024-01-15T03:09:16;100074.47;;;-5.03
76713;BMP280;65640;43.154;25.658;2024-01-15T03:11:41;100077.81;;;-5.10
76713;BMP280;65640;43.154;25.658;2024-01-15T03:14:07;100079.28;;;-5.16
76713;BMP280;65640;43.154;25.658;2024-01-15T03:16:33;100082.81;;;-5.17
76713;BMP280;65640;43.154;25.658;2024-01-15T03:18:58;100087.28;;;-5.19
76713;BMP280;65640;43.154;25.658;2024-01-15T03:21:23;100084.72;;;-5.19
76713;BMP280;65640;43.154;25.658;2024-01-15T03:23:48;100093.78;;;-5.08
76713;BMP280;65640;43.154;25.658;2024-01-15T03:26:14;100092.66;;;-5.06
76713;BMP280;65640;43.154;25.658;2024-01-15T03:28:39;100101.56;;;-5.10
76713;BMP280;65640;43.154;25.658;2024-01-15T03:31:04;100096.19;;;-5.15
76713;BMP280;65640;43.154;25.658;2024-01-15T03:33:29;100094.75;;;-5.17
76713;BMP280;65640;43.154;25.658;2024-01-15T03:35:55;100095.53;;;-5.09
76713;BMP280;65640;43.154;25.658;2024-01-15T03:38:20;100099.09;;;-4.95
76713;BMP280;65640;43.154;25.658;2024-01-15T03:40:45;100094.53;;;-5.00
76713;BMP280;65640;43.154;25.658;2024-01-15T03:43:11;100088.63;;;-5.00
76713;BMP280;65640;43.154;25.658;2024-01-15T03:45:37;100088.81;;;-5.02
76713;BMP280;65640;43.154;25.658;2024-01-15T03:48:02;100092.03;;;-5.16
76713;BMP280;65640;43.154;25.658;2024-01-15T03:50:27;100086.41;;;-5.42
76713;BMP280;65640;43.154;25.658;2024-01-15T03:52:53;100083.00;;;-5.82
76713;BMP280;65640;43.154;25.658;2024-01-15T03:55:18;100077.94;;;-6.06
76713;BMP280;65640;43.154;25.658;2024-01-15T03:57:43;100070.81;;;-6.11
76713;BMP280;65640;43.154;25.658;2024-01-15T04:00:09;100078.44;;;-6.11
76713;BMP280;65640;43.154;25.658;2024-01-15T04:02:34;100080.00;;;-6.10
76713;BMP280;65640;43.154;25.658;2024-01-15T04:04:59;100081.78;;;-6.18
76713;BMP280;65640;43.154;25.658;2024-01-15T04:07:25;100079.22;;;-6.27
76713;BMP280;65640;43.154;25.658;2024-01-15T04:09:50;100068.91;;;-6.17
76713;BMP280;65640;43.154;25.658;2024-01-15T04:12:15;100062.19;;;-6.10
76713;BMP280;65640;43.154;25.658;2024-01-15T04:14:40;100062.69;;;-5.98
76713;BMP280;65640;43.154;25.658;2024-01-15T04:17:06;100060.56;;;-5.86
76713;BMP280;65640;43.154;25.658;2024-01-15T04:19:31;100054.03;;;-5.81
76713;BMP280;65640;43.154;25.658;2024-01-15T04:21:56;100064.09;;;-5.87
76713;BMP280;65640;43.154;25.658;2024-01-15T04:24:21;100068.34;;;-5.80
76713;BMP280;65640;43.154;25.658;2024-01-15T04:26:47;100068.31;;;-5.55
76713;BMP280;65640;43.154;25.658;2024-01-15T04:29:12;100067.44;;;-5.40
76713;BMP280;65640;43.154;25.658;2024-01-15T04:31:37;100063.75;;;-5.29
76713;BMP280;65640;43.154;25.658;2024-01-15T04:34:02;100058.38;;;-5.03
76713;BMP280;65640;43.154;25.658;2024-01-15T04:36:28;100058.88;;;-5.08
76713;BMP280;65640;43.154;25.658;2024-01-15T04:38:53;100051.56;;;-5.19
76713;BMP280;65640;43.154;25.658;2024-01-15T04:41:18;100053.78;;;-5.47
76713;BMP280;65640;43.154;25.658;2024-01-15T04:43:43;100051.25;;;-5.63
76713;BMP280;65640;43.154;25.658;2024-01-15T04:46:09;100053.25;;;-5.73
76713;BMP280;65640;43.154;25.658;2024-01-15T04:48:34;100049.56;;;-5.79
76713;BMP280;65640;43.154;25.658;2024-01-15T04:51:00;100047.03;;;-5.79
76713;BMP280;65640;43.154;25.658;2024-01-15T04:53:25;100043.84;;;-5.81
76713;BMP280;65640;43.154;25.658;2024-01-15T04:55:51;100046.56;;;-5.82
76713;BMP280;65640;43.154;25.658;2024-01-15T04:58:16;100049.59;;;-5.87
76713;BMP280;65640;43.154;25.658;2024-01-15T05:00:41;100052.47;;;-5.90
76713;BMP280;65640;43.154;25.658;2024-01-15T05:03:07;100050.56;;;-5.96
76713;BMP280;65640;43.154;25.658;2024-01-15T05:05:32;100047.88;;;-6.03
76713;BMP280;65640;43.154;25.658;2024-01-15T05:07:57;100032.44;;;-6.01
76713;BMP280;65640;43.154;25.658;2024-01-15T05:10:22;100031.31;;;-5.99
76713;BMP280;65640;43.154;25.658;2024-01-15T05:12:48;100042.91;;;-6.04
76713;BMP280;65640;43.154;25.658;2024-01-15T05:15:13;100035.00;;;-6.01
76713;BMP280;65640;43.154;25.658;2024-01-15T05:17:38;100031.03;;;-6.12
76713;BMP280;65640;43.154;25.658;2024-01-15T05:20:04;100029.28;;;-6.11
76713;BMP280;65640;43.154;25.658;2024-01-15T05:22:29;100029.28;;;-6.11
76713;BMP280;65640;43.154;25.658;2024-01-15T05:24:55;100029.09;;;-6.02
76713;BMP280;65640;43.154;25.658;2024-01-15T05:27:20;100027.78;;;-5.89
76713;BMP280;65640;43.154;25.658;2024-01-15T05:29:45;100024.44;;;-5.74
76713;BMP280;65640;43.154;25.658;2024-01-15T05:32:10;100026.25;;;-5.60
76713;BMP280;65640;43.154;25.658;2024-01-15T05:34:35;100027.53;;;-5.55
76713;BMP280;65640;43.154;25.658;2024-01-15T05:37:01;100026.53;;;-5.94
76713;BMP280;65640;43.154;25.658;2024-01-15T05:39:26;100017.66;;;-6.14
76713;BMP280;65640;43.154;25.658;2024-01-15T05:41:51;100009.97;;;-6.06
76713;BMP280;65640;43.154;25.658;2024-01-15T05:44:16;100011.25;;;-6.10
76713;BMP280;65640;43.154;25.658;2024-01-15T05:46:42;100003.19;;;-6.13
76713;BMP280;65640;43.154;25.658;2024-01-15T05:49:07;100001.91;;;-6.17
76713;BMP280;65640;43.154;25.658;2024-01-15T05:51:32;99997.13;;;-6.20
76713;BMP280;65640;43.154;25.658;2024-01-15T05:53:58;100000.00;;;-6.24
76713;BMP280;65640;43.154;25.658;2024-01-15T05:56:23;100000.00;;;-6.24
76713;BMP280;65640;43.154;25.658;2024-01-15T05:58:49;99992.81;;;-6.20
76713;BMP280;65640;43.154;25.658;2024-01-15T06:01:14;99996.13;;;-5.95
76713;BMP280;65640;43.154;25.658;2024-01-15T06:03:40;99990.72;;;-6.00
76713;BMP280;65640;43.154;25.658;2024-01-15T06:06:05;99993.28;;;-6.00
76713;BMP280;65640;43.154;25.658;2024-01-15T06:08:30;99992.94;;;-5.97
76713;BMP280;65640;43.154;25.658;2024-01-15T06:10:56;99988.31;;;-5.94
76713;BMP280;65640;43.154;25.658;2024-01-15T06:13:21;99986.09;;;-5.88
76713;BMP280;65640;43.154;25.658;2024-01-15T06:15:46;99987.50;;;-5.86
76713;BMP280;65640;43.154;25.658;2024-01-15T06:18:12;99985.00;;;-5.63
76713;BMP280;65640;43.154;25.658;2024-01-15T06:20:37;99987.41;;;-5.62
76713;BMP280;65640;43.154;25.658;2024-01-15T06:23:03;99984.16;;;-5.47
76713;BMP280;65640;43.154;25.658;2024-01-15T06:25:28;99985.63;;;-5.22
76713;BMP280;65640;43.154;25.658;2024-01-15T06:27:54;99969.88;;;-5.03
76713;BMP280;65640;43.154;25.658;2024-01-15T06:30:19;99970.41;;;-4.70
76713;BMP280;65640;43.154;25.658;2024-01-15T06:32:44;99979.09;;;-4.56
76713;BMP280;65640;43.154;25.658;2024-01-15T06:35:10;99983.00;;;-4.68
76713;BMP280;65640;43.154;25.658;2024-01-15T06:37:36;99977.34;;;-4.78
76713;BMP280;65640;43.154;25.658;2024-01-15T06:40:02;99979.28;;;-4.80
76713;BMP280;65640;43.154;25.658;2024-01-15T06:42:28;99975.47;;;-4.84
76713;BMP280;65640;43.154;25.658;2024-01-15T06:44:53;99977.25;;;-4.85
76713;BMP280;65640;43.154;25.658;2024-01-15T06:47:18;99973.91;;;-4.85
76713;BMP280;65640;43.154;25.658;2024-01-15T06:49:44;99973.66;;;-4.76
76713;BMP280;65640;43.154;25.658;2024-01-15T06:52:09;99964.72;;;-4.57
76713;BMP280;65640;43.154;25.658;2024-01-15T06:54:34;99955.31;;;-4.42
76713;BMP280;65640;43.154;25.658;2024-01-15T06:57:00;99949.31;;;-4.19
76713;BMP280;65640;43.154;25.658;2024-01-15T06:59:25;99944.38;;;-4.06
76713;BMP280;65640;43.154;25.658;2024-01-15T07:01:50;99947.75;;;-3.91
76713;BMP280;65640;43.154;25.658;2024-01-15T07:04:16;99950.34;;;-3.70
76713;BMP280;65640;43.154;25.658;2024-01-15T07:06:41;99953.53;;;-3.67
76713;BMP280;65640;43.154;25.658;2024-01-15T07:09:06;99950.47;;;-3.56
76713;BMP280;65640;43.154;25.658;2024-01-15T07:11:32;99954.53;;;-3.47
76713;BMP280;65640;43.154;25.658;2024-01-15T07:13:58;99946.97;;;-3.34
76713;BMP280;65640;43.154;25.658;2024-01-15T07:16:23;99955.91;;;-3.23
76713;BMP280;65640;43.154;25.658;2024-01-15T07:18:48;99955.66;;;-3.07
76713;BMP280;65640;43.154;25.658;2024-01-15T07:21:14;99954.84;;;-2.86
76713;BMP280;65640;43.154;25.658;2024-01-15T07:23:39;99947.97;;;-2.58
76713;BMP280;65640;43.154;25.658;2024-01-15T07:26:04;99949.53;;;-2.22
76713;BMP280;65640;43.154;25.658;2024-01-15T07:28:30;99955.97;;;-1.92
76713;BMP280;65640;43.154;25.658;2024-01-15T07:30:55;99958.84;;;-1.60
76713;BMP280;65640;43.154;25.658;2024-01-15T07:33:21;99954.06;;;-1.70
76713;BMP280;65640;43.154;25.658;2024-01-15T07:35:46;99949.25;;;-1.93
76713;BMP280;65640;43.154;25.658;2024-01-15T07:38:11;99949.44;;;-1.94
76713;BMP280;65640;43.154;25.658;2024-01-15T07:40:37;99952.38;;;-1.97
76713;BMP280;65640;43.154;25.658;2024-01-15T07:43:02;99956.13;;;-2.00
76713;BMP280;65640;43.154;25.658;2024-01-15T07:45:27;99957.78;;;-1.86
76713;BMP280;65640;43.154;25.658;2024-01-15T07:47:53;99937.41;;;-1.94
76713;BMP280;65640;43.154;25.658;2024-01-15T07:50:18;99939.78;;;-1.92
76713;BMP280;65640;43.154;25.658;2024-01-15T07:52:43;99940.47;;;-1.71
76713;BMP280;65640;43.154;25.658;2024-01-15T07:55:09;99940.47;;;-1.57
76713;BMP280;65640;43.154;25.658;2024-01-15T07:57:34;99944.25;;;-1.40
76713;BMP280;65640;43.154;25.658;2024-01-15T08:00:00;99943.88;;;-1.24
76713;BMP280;65640;43.154;25.658;2024-01-15T08:02:26;99949.00;;;-1.11
76713;BMP280;65640;43.154;25.658;2024-01-15T08:04:52;99956.91;;;-0.92
76713;BMP280;65640;43.154;25.658;2024-01-15T08:07:17;99947.00;;;-0.69
76713;BMP280;65640;43.154;25.658;2024-01-15T08:09:42;99951.31;;;-0.63
76713;BMP280;65640;43.154;25.658;2024-01-15T08:12:08;99946.31;;;-0.38
76713;BMP280;65640;43.154;25.658;2024-01-15T08:14:35;99935.16;;;-0.12
76713;BMP280;65640;43.154;25.658;2024-01-15T08:17:00;99930.84;;;0.20
76713;BMP280;65640;43.154;25.658;2024-01-15T08:19:26;99917.25;;;0.38
76713;BMP280;65640;43.154;25.658;2024-01-15T08:21:52;99916.31;;;0.57
76713;BMP280;65640;43.154;25.658;2024-01-15T08:24:18;99911.09;;;0.88
76713;BMP280;65640;43.154;25.658;2024-01-15T08:26:43;99906.25;;;1.17
76713;BMP280;65640;43.154;25.658;2024-01-15T08:29:08;99908.81;;;1.53
76713;BMP280;65640;43.154;25.658;2024-01-15T08:31:34;99906.59;;;1.57
76713;BMP280;65640;43.154;25.658;2024-01-15T08:33:59;99906.78;;;1.37
76713;BMP280;65640;43.154;25.658;2024-01-15T08:36:26;99908.97;;;1.22
76713;BMP280;65640;43.154;25.658;2024-01-15T08:38:52;99897.44;;;1.06
76713;BMP280;65640;43.154;25.658;2024-01-15T08:41:17;99894.66;;;0.89
76713;BMP280;65640;43.154;25.658;2024-01-15T08:43:42;99895.34;;;0.96
76713;BMP280;65640;43.154;25.658;2024-01-15T08:46:07;99891.94;;;1.02
76713;BMP280;65640;43.154;25.658;2024-01-15T08:48:33;99877.69;;;1.18
76713;BMP280;65640;43.154;25.658;2024-01-15T08:50:58;99881.16;;;1.42
76713;BMP280;65640;43.154;25.658;2024-01-15T08:53:23;99876.69;;;1.67
76713;BMP280;65640;43.154;25.658;2024-01-15T08:55:49;99871.81;;;1.78
76713;BMP280;65640;43.154;25.658;2024-01-15T08:58:14;99871.28;;;1.99
76713;BMP280;65640;43.154;25.658;2024-01-15T09:00:39;99871.22;;;2.17
76713;BMP280;65640;43.154;25.658;2024-01-15T09:03:05;99864.69;;;2.50
76713;BMP280;65640;43.154;25.658;2024-01-15T09:05:30;99859.63;;;2.90
76713;BMP280;65640;43.154;25.658;2024-01-15T09:07:55;99869.78;;;3.20
76713;BMP280;65640;43.154;25.658;2024-01-15T09:10:21;99857.31;;;3.45
76713;BMP280;65640;43.154;25.658;2024-01-15T09:12:46;99857.19;;;3.68
76713;BMP280;65640;43.154;25.658;2024-01-15T09:15:11;99851.72;;;3.98
76713;BMP280;65640;43.154;25.658;2024-01-15T09:17:37;99839.47;;;4.27
76713;BMP280;65640;43.154;25.658;2024-01-15T09:20:02;99828.50;;;4.42
76713;BMP280;65640;43.154;25.658;2024-01-15T09:22:29;99822.72;;;4.73
76713;BMP280;65640;43.154;25.658;2024-01-15T09:24:54;99820.91;;;5.00
76713;BMP280;65640;43.154;25.658;2024-01-15T09:27:20;99815.47;;;5.29
76713;BMP280;65640;43.154;25.658;2024-01-15T09:29:45;99803.16;;;5.41
76713;BMP280;65640;43.154;25.658;2024-01-15T09:32:11;99808.34;;;5.46
76713;BMP280;65640;43.154;25.658;2024-01-15T09:34:37;99800.22;;;5.32
76713;BMP280;65640;43.154;25.658;2024-01-15T09:37:03;99792.31;;;5.17
76713;BMP280;65640;43.154;25.658;2024-01-15T09:39:29;99787.06;;;5.12
76713;BMP280;65640;43.154;25.658;2024-01-15T09:41:55;99777.53;;;5.18
76713;BMP280;65640;43.154;25.658;2024-01-15T09:44:21;99761.09;;;5.07
76713;BMP280;65640;43.154;25.658;2024-01-15T09:46:55;99749.72;;;5.13
76713;BMP280;65640;43.154;25.658;2024-01-15T09:49:21;99744.00;;;5.11
76713;BMP280;65640;43.154;25.658;2024-01-15T09:51:47;99738.91;;;5.26
76713;BMP280;65640;43.154;25.658;2024-01-15T09:54:12;99745.72;;;5.32
76713;BMP280;65640;43.154;25.658;2024-01-15T09:56:38;99737.38;;;5.25
76713;BMP280;65640;43.154;25.658;2024-01-15T09:59:04;99738.44;;;5.29
76713;BMP280;65640;43.154;25.658;2024-01-15T10:01:29;99728.66;;;5.36
76713;BMP280;65640;43.154;25.658;2024-01-15T10:03:56;99720.38;;;5.40
76713;BMP280;65640;43.154;25.658;2024-01-15T10:06:21;99712.03;;;5.43
76713;BMP280;65640;43.154;25.658;2024-01-15T10:08:48;99706.25;;;5.62
76713;BMP280;65640;43.154;25.658;2024-01-15T10:11:14;99706.72;;;6.01
76713;BMP280;65640;43.154;25.658;2024-01-15T10:13:39;99696.66;;;6.30
76713;BMP280;65640;43.154;25.658;2024-01-15T10:16:05;99684.50;;;6.56
76713;BMP280;65640;43.154;25.658;2024-01-15T10:18:31;99679.84;;;6.73
76713;BMP280;65640;43.154;25.658;2024-01-15T10:20:56;99671.78;;;6.90
76713;BMP280;65640;43.154;25.658;2024-01-15T10:23:22;99673.59;;;7.05
76713;BMP280;65640;43.154;25.658;2024-01-15T10:25:48;99660.31;;;7.16
76713;BMP280;65640;43.154;25.658;2024-01-15T10:28:13;99666.56;;;7.15
76713;BMP280;65640;43.154;25.658;2024-01-15T10:30:39;99658.50;;;7.17
76713;BMP280;65640;43.154;25.658;2024-01-15T10:33:04;99653.03;;;7.13
76713;BMP280;65640;43.154;25.658;2024-01-15T10:35:30;99651.22;;;7.19
76713;BMP280;65640;43.154;25.658;2024-01-15T10:37:56;99643.91;;;7.21
76713;BMP280;65640;43.154;25.658;2024-01-15T10:40:21;99640.75;;;7.39
76713;BMP280;65640;43.154;25.658;2024-01-15T10:42:47;99634.25;;;7.42
76713;BMP280;65640;43.154;25.658;2024-01-15T10:45:13;99632.06;;;7.59
76713;BMP280;65640;43.154;25.658;2024-01-15T10:47:38;99626.09;;;7.63
76713;BMP280;65640;43.154;25.658;2024-01-15T10:50:04;99613.78;;;7.69
76713;BMP280;65640;43.154;25.658;2024-01-15T10:52:31;99601.03;;;7.67
76713;BMP280;65640;43.154;25.658;2024-01-15T10:54:57;99590.84;;;7.71
76713;BMP280;65640;43.154;25.658;2024-01-15T10:57:23;99588.44;;;7.90
76713;BMP280;65640;43.154;25.658;2024-01-15T10:59:48;99581.66;;;7.89
76713;BMP280;65640;43.154;25.658;2024-01-15T11:02:14;99578.47;;;7.97
76713;BMP280;65640;43.154;25.658;2024-01-15T11:04:40;99572.38;;;8.12
76713;BMP280;65640;43.154;25.658;2024-01-15T11:07:05;99571.56;;;8.16
76713;BMP280;65640;43.154;25.658;2024-01-15T11:09:31;99559.50;;;8.30
76713;BMP280;65640;43.154;25.658;2024-01-15T11:12:12;99554.53;;;8.29
76713;BMP280;65640;43.154;25.658;2024-01-15T11:14:47;99552.34;;;8.41
76713;BMP280;65640;43.154;25.658;2024-01-15T11:17:13;99550.41;;;8.52
76713;BMP280;65640;43.154;25.658;2024-01-15T11:24:51;99534.56;;;8.72
76713;BMP280;65640;43.154;25.658;2024-01-15T11:27:16;99537.66;;;8.79
76713;BMP280;65640;43.154;25.658;2024-01-15T11:30:04;99531.19;;;8.95
76713;BMP280;65640;43.154;25.658;2024-01-15T11:32:34;99521.41;;;9.06
76713;BMP280;65640;43.154;25.658;2024-01-15T11:35:01;99518.41;;;9.17
76713;BMP280;65640;43.154;25.658;2024-01-15T11:37:27;99516.00;;;9.40
76713;BMP280;65640;43.154;25.658;2024-01-15T11:39:54;99520.84;;;9.65
76713;BMP280;65640;43.154;25.658;2024-01-15T11:42:20;99513.72;;;9.89
76713;BMP280;65640;43.154;25.658;2024-01-15T11:44:45;99506.22;;;10.29
76713;BMP280;65640;43.154;25.658;2024-01-15T11:47:11;99493.25;;;10.51
76713;BMP280;65640;43.154;25.658;2024-01-15T11:52:04;99491.09;;;10.94
76713;BMP280;65640;43.154;25.658;2024-01-15T11:54:30;99486.44;;;11.05
76713;BMP280;65640;43.154;25.658;2024-01-15T11:56:57;99479.03;;;11.07
76713;BMP280;65640;43.154;25.658;2024-01-15T11:59:24;99472.53;;;11.18
76713;BMP280;65640;43.154;25.658;2024-01-15T12:01:49;99470.19;;;11.16
76713;BMP280;65640;43.154;25.658;2024-01-15T12:04:14;99476.81;;;11.14
76713;BMP280;65640;43.154;25.658;2024-01-15T12:06:42;99461.63;;;11.02
76713;BMP280;65640;43.154;25.658;2024-01-15T12:09:08;99450.81;;;10.81
76713;BMP280;65640;43.154;25.658;2024-01-15T12:11:33;99453.84;;;10.83
76713;BMP280;65640;43.154;25.658;2024-01-15T12:14:00;99455.63;;;10.88
76713;BMP280;65640;43.154;25.658;2024-01-15T12:16:25;99453.88;;;10.97
76713;BMP280;65640;43.154;25.658;2024-01-15T12:18:50;99443.00;;;11.04
76713;BMP280;65640;43.154;25.658;2024-01-15T12:21:15;99445.47;;;11.09
76713;BMP280;65640;43.154;25.658;2024-01-15T12:23:41;99449.44;;;11.20
76713;BMP280;65640;43.154;25.658;2024-01-15T12:26:06;99443.22;;;11.38
76713;BMP280;65640;43.154;25.658;2024-01-15T12:28:31;99444.56;;;11.49
76713;BMP280;65640;43.154;25.658;2024-01-15T12:30:57;99447.03;;;11.54
76713;BMP280;65640;43.154;25.658;2024-01-15T12:33:24;99440.97;;;11.45
76713;BMP280;65640;43.154;25.658;2024-01-15T12:35:52;99439.38;;;11.36
76713;BMP280;65640;43.154;25.658;2024-01-15T12:38:18;99437.59;;;11.09
76713;BMP280;65640;43.154;25.658;2024-01-15T12:40:44;99437.97;;;10.94
76713;BMP280;65640;43.154;25.658;2024-01-15T12:43:11;99437.72;;;10.81
76713;BMP280;65640;43.154;25.658;2024-01-15T12:45:36;99440.34;;;10.81
76713;BMP280;65640;43.154;25.658;2024-01-15T12:48:03;99437.72;;;10.81
76713;BMP280;65640;43.154;25.658;2024-01-15T12:50:29;99434.38;;;10.89
76713;BMP280;65640;43.154;25.658;2024-01-15T12:52:54;99431.06;;;10.84
76713;BMP280;65640;43.154;25.658;2024-01-15T12:55:19;99430.00;;;10.85
76713;BMP280;65640;43.154;25.658;2024-01-15T12:57:44;99426.72;;;10.93
76713;BMP280;65640;43.154;25.658;2024-01-15T13:00:10;99423.59;;;10.91
76713;BMP280;65640;43.154;25.658;2024-01-15T13:02:37;99410.47;;;10.82
76713;BMP280;65640;43.154;25.658;2024-01-15T13:05:03;99401.94;;;10.77
76713;BMP280;65640;43.154;25.658;2024-01-15T13:07:29;99408.56;;;10.74
76713;BMP280;65640;43.154;25.658;2024-01-15T13:09:54;99405.31;;;10.77
76713;BMP280;65640;43.154;25.658;2024-01-15T13:12:20;99400.94;;;10.86
76713;BMP280;65640;43.154;25.658;2024-01-15T13:14:45;99411.00;;;10.93
76713;BMP280;65640;43.154;25.658;2024-01-15T13:17:10;99405.69;;;10.98
76713;BMP280;65640;43.154;25.658;2024-01-15T13:19:35;99391.97;;;11.01
76713;BMP280;65640;43.154;25.658;2024-01-15T13:22:01;99391.03;;;10.97
76713;BMP280;65640;43.154;25.658;2024-01-15T13:24:26;99388.09;;;10.99
76713;BMP280;65640;43.154;25.658;2024-01-15T13:26:52;99391.13;;;10.92
76713;BMP280;65640;43.154;25.658;2024-01-15T13:29:17;99378.44;;;10.85
76713;BMP280;65640;43.154;25.658;2024-01-15T13:31:43;99372.28;;;10.81
76713;BMP280;65640;43.154;25.658;2024-01-15T13:34:11;99366.41;;;10.84
76713;BMP280;65640;43.154;25.658;2024-01-15T13:36:36;99372.72;;;10.83
76713;BMP280;65640;43.154;25.658;2024-01-15T13:39:04;99372.66;;;10.75
76713;BMP280;65640;43.154;25.658;2024-01-15T13:41:33;99365.13;;;10.73
76713;BMP280;65640;43.154;25.658;2024-01-15T13:43:58;99371.50;;;10.67
76713;BMP280;65640;43.154;25.658;2024-01-15T13:46:25;99365.53;;;10.67
76713;BMP280;65640;43.154;25.658;2024-01-15T13:48:53;99368.31;;;10.70
76713;BMP280;65640;43.154;25.658;2024-01-15T13:51:18;99373.06;;;10.68